sensor_id;sensor_type;location;lat;lon;timestamp;pressure;altitude;pressure_sealevel;temperature;humidity
7333;BME280;3707;43.618;25.342;2024-02-21T00:02:19;100920.38;;;6.85;100.00
7333;BME280;3707;43.618;25.342;2024-02-21T00:04:46;100898.84;;;6.83;100.00
7333;BME280;3707;43.618;25.342;2024-02-21T00:07:13;100928.78;;;7.00;100.00
7333;BME280;3707;43.618;25.342;2024-02-21T00:09:40;100917.47;;;6.96;100.00
7333;BME280;3707;43.618;25.342;2024-02-21T00:12:14;100921.88;;;6.99;100.00
7333;BME280;3707;43.618;25.342;2024-02-21T00:14:42;100920.00;;;6.95;100.00
7333;BME280;3707;43.618;25.342;2024-02-21T00:17:09;100905.00;;;6.86;100.00
7333;BME280;3707;43.618;25.342;2024-02-21T00:19:35;100908.47;;;6.87;100.00
7333;BME280;3707;43.618;25.342;2024-02-21T00:22:02;100905.69;;;6.82;100.00
7333;BME280;3707;43.618;25.342;2024-02-21T00:24:29;100902.16;;;6.80;100.00
7333;BME280;3707;43.618;25.342;2024-02-21T00:26:56;100904.47;;;6.74;100.00
7333;BME280;3707;43.618;25.342;2024-02-21T00:29:24;100904.34;;;6.71;100.00
7333;BME280;3707;43.618;25.342;2024-02-21T00:31:51;100893.63;;;6.62;100.00
7333;BME280;3707;43.618;25.342;2024-02-21T00:34:18;100894.22;;;6.57;100.00
7333;BME280;3707;43.618;25.342;2024-02-21T00:36:44;100901.91;;;6.55;100.00
7333;BME280;3707;43.618;25.342;2024-02-21T00:39:11;100889.72;;;6.51;100.00
7333;BME280;3707;43.618;25.342;2024-02-21T00:41:38;100891.19;;;6.46;100.00
7333;BME280;3707;43.618;25.342;2024-02-21T00:44:05;100897.09;;;6.43;100.00
7333;BME280;3707;43.618;25.342;2024-02-21T00:46:33;100893.84;;;6.47;100.00
7333;BME280;3707;43.618;25.342;2024-02-21T00:49:00;100894.09;;;6.54;100.00
7333;BME280;3707;43.618;25.342;2024-02-21T00:51:27;100898.13;;;6.66;100.00
7333;BME280;3707;43.618;25.342;2024-02-21T00:53:53;100889.50;;;6.66;100.00
7333;BME280;3707;43.618;25.342;2024-02-21T00:56:20;100893.69;;;6.64;100.00
7333;BME280;3707;43.618;25.342;2024-02-21T00:58:47;100852.84;;;6.33;100.00
7333;BME280;3707;43.618;25.342;2024-02-21T01:01:21;100888.69;;;6.47;100.00
7333;BME280;3707;43.618;25.342;2024-02-21T01:03:49;100900.47;;;6.42;100.00
7333;BME280;3707;43.618;25.342;2024-02-21T01:06:16;100901.56;;;6.28;100.00
7333;BME280;3707;43.618;25.342;2024-02-21T01:08:43;100898.00;;;6.07;100.00
7333;BME280;3707;43.618;25.342;2024-02-21T01:11:10;100886.31;;;5.78;100.00
7333;BME280;3707;43.618;25.342;2024-02-21T01:13:36;100899.81;;;5.73;100.00
7333;BME280;3707;43.618;25.342;2024-02-21T01:16:04;100895.84;;;5.62;100.00
7333;BME280;3707;43.618;25.342;2024-02-21T01:18:31;100894.44;;;5.50;100.00
7333;BME280;3707;43.618;25.342;2024-02-21T01:20:59;100877.97;;;5.29;100.00
7333;BME280;3707;43.618;25.342;2024-02-21T01:23:26;100891.63;;;5.28;100.00
7333;BME280;3707;43.618;25.342;2024-02-21T01:25:53;100886.78;;;5.17;100.00
7333;BME280;3707;43.618;25.342;2024-02-21T01:28:20;100890.97;;;5.15;100.00
7333;BME280;3707;43.618;25.342;2024-02-21T01:30:47;100881.19;;;5.08;100.00
7333;BME280;3707;43.618;25.342;2024-02-21T01:33:14;100874.84;;;5.01;100.00
7333;BME280;3707;43.618;25.342;2024-02-21T01:35:41;100875.75;;;5.02;100.00
7333;BME280;3707;43.618;25.342;2024-02-21T01:38:09;100871.63;;;5.05;100.00
7333;BME280;3707;43.618;25.342;2024-02-21T01:40:36;100846.94;;;4.91;100.00
7333;BME280;3707;43.618;25.342;2024-02-21T01:43:03;100871.50;;;5.02;100.00
7333;BME280;3707;43.618;25.342;2024-02-21T01:45:30;100864.72;;;5.04;100.00
7333;BME280;3707;43.618;25.342;2024-02-21T01:47:57;100867.94;;;5.00;100.00
7333;BME280;3707;43.618;25.342;2024-02-21T01:50:24;100854.75;;;5.10;100.00
7333;BME280;3707;43.618;25.342;2024-02-21T01:52:51;100850.22;;;5.22;100.00
7333;BME280;3707;43.618;25.342;2024-02-21T01:55:19;100850.34;;;5.25;100.00
7333;BME280;3707;43.618;25.342;2024-02-21T01:57:47;100860.59;;;5.24;100.00
7333;BME280;3707;43.618;25.342;2024-02-21T02:00:14;100793.94;;;4.93;100.00
7333;BME280;3707;43.618;25.342;2024-02-21T02:02:42;100852.88;;;5.41;100.00
7333;BME280;3707;43.618;25.342;2024-02-21T02:05:10;100850.47;;;5.64;100.00
7333;BME280;3707;43.618;25.342;2024-02-21T02:07:37;100852.59;;;5.72;100.00
7333;BME280;3707;43.618;25.342;2024-02-21T02:10:05;100854.66;;;5.97;100.00
7333;BME280;3707;43.618;25.342;2024-02-21T02:12:33;100854.81;;;6.19;100.00
7333;BME280;3707;43.618;25.342;2024-02-21T02:15:01;100864.28;;;6.39;100.00
7333;BME280;3707;43.618;25.342;2024-02-21T02:17:30;100863.75;;;6.46;100.00
7333;BME280;3707;43.618;25.342;2024-02-21T02:19:57;100837.06;;;6.44;100.00
7333;BME280;3707;43.618;25.342;2024-02-21T02:22:29;100853.31;;;6.63;100.00
7333;BME280;3707;43.618;25.342;2024-02-21T02:24:59;100855.44;;;6.73;100.00
7333;BME280;3707;43.618;25.342;2024-02-21T02:27:25;100855.44;;;6.73;100.00
7333;BME280;3707;43.618;25.342;2024-02-21T02:29:52;100858.16;;;6.76;100.00
7333;BME280;3707;43.618;25.342;2024-02-21T02:32:19;100853.13;;;6.79;100.00
7333;BME280;3707;43.618;25.342;2024-02-21T02:34:46;100851.88;;;6.90;100.00
7333;BME280;3707;43.618;25.342;2024-02-21T02:37:12;100827.16;;;6.74;100.00
7333;BME280;3707;43.618;25.342;2024-02-21T02:39:39;100845.41;;;6.99;100.00
7333;BME280;3707;43.618;25.342;2024-02-21T02:42:07;100841.41;;;7.06;100.00
7333;BME280;3707;43.618;25.342;2024-02-21T02:44:34;100849.19;;;7.08;100.00
7333;BME280;3707;43.618;25.342;2024-02-21T02:47:01;100849.94;;;7.05;100.00
7333;BME280;3707;43.618;25.342;2024-02-21T02:49:27;100849.94;;;7.05;100.00
7333;BME280;3707;43.618;25.342;2024-02-21T02:51:54;100856.03;;;7.07;100.00
7333;BME280;3707;43.618;25.342;2024-02-21T02:54:21;100857.00;;;7.09;100.00
7333;BME280;3707;43.618;25.342;2024-02-21T02:56:49;100831.56;;;6.97;100.00
7333;BME280;3707;43.618;25.342;2024-02-21T02:59:18;100859.38;;;7.05;100.00
7333;BME280;3707;43.618;25.342;2024-02-21T03:01:45;100859.28;;;7.03;100.00
7333;BME280;3707;43.618;25.342;2024-02-21T03:04:11;100850.72;;;7.03;100.00
7333;BME280;3707;43.618;25.342;2024-02-21T03:06:38;100864.53;;;7.05;100.00
7333;BME280;3707;43.618;25.342;2024-02-21T03:09:05;100852.53;;;7.05;100.00
7333;BME280;3707;43.618;25.342;2024-02-21T03:11:34;100849.94;;;7.05;100.00
7333;BME280;3707;43.618;25.342;2024-02-21T03:14:00;100855.16;;;7.07;100.00
7333;BME280;3707;43.618;25.342;2024-02-21T03:16:28;100861.19;;;7.07;100.00
7333;BME280;3707;43.618;25.342;2024-02-21T03:18:55;100837.38;;;6.92;100.00
7333;BME280;3707;43.618;25.342;2024-02-21T03:21:22;100860.13;;;7.02;100.00
7333;BME280;3707;43.618;25.342;2024-02-21T03:23:49;100860.25;;;7.05;100.00
7333;BME280;3707;43.618;25.342;2024-02-21T03:26:16;100852.44;;;7.04;100.00
7333;BME280;3707;43.618;25.342;2024-02-21T03:28:43;100854.28;;;7.06;100.00
7333;BME280;3707;43.618;25.342;2024-02-21T03:31:11;100856.88;;;7.06;100.00
7333;BME280;3707;43.618;25.342;2024-02-21T03:33:39;100862.75;;;7.04;100.00
7333;BME280;3707;43.618;25.342;2024-02-21T03:36:06;100860.00;;;6.99;100.00
7333;BME280;3707;43.618;25.342;2024-02-21T03:38:33;100862.88;;;6.86;100.00
7333;BME280;3707;43.618;25.342;2024-02-21T03:41:00;100864.00;;;6.92;100.00
7333;BME280;3707;43.618;25.342;2024-02-21T03:43:27;100838.63;;;6.81;100.00
7333;BME280;3707;43.618;25.342;2024-02-21T03:45:53;100865.09;;;6.97;100.00
7333;BME280;3707;43.618;25.342;2024-02-21T03:48:20;100864.66;;;6.87;100.00
7333;BME280;3707;43.618;25.342;2024-02-21T03:50:48;100870.81;;;6.90;100.00
7333;BME280;3707;43.618;25.342;2024-02-21T03:53:15;100873.31;;;6.89;100.00
7333;BME280;3707;43.618;25.342;2024-02-21T03:55:42;100870.56;;;6.84;100.00
7333;BME280;3707;43.618;25.342;2024-02-21T03:58:09;100864.13;;;6.75;100.00
7333;BME280;3707;43.618;25.342;2024-02-21T04:00:35;100861.97;;;6.65;100.00
7333;BME280;3707;43.618;25.342;2024-02-21T04:03:03;100858.59;;;6.66;100.00
7333;BME280;3707;43.618;25.342;2024-02-21T04:05:29;100860.94;;;6.61;100.00
7333;BME280;3707;43.618;25.342;2024-02-21T04:07:57;100863.19;;;6.54;100.00
7333;BME280;3707;43.618;25.342;2024-02-21T04:10:24;100857.78;;;6.47;100.00
7333;BME280;3707;43.618;25.342;2024-02-21T04:12:51;100870.75;;;6.49;100.00
7333;BME280;3707;43.618;25.342;2024-02-21T04:15:18;100866.59;;;6.53;100.00
7333;BME280;3707;43.618;25.342;2024-02-21T04:17:45;100860.44;;;6.49;100.00
7333;BME280;3707;43.618;25.342;2024-02-21T04:20:14;100862.81;;;6.44;100.00
7333;BME280;3707;43.618;25.342;2024-02-21T04:22:42;100873.25;;;6.47;100.00
7333;BME280;3707;43.618;25.342;2024-02-21T04:25:11;100873.38;;;6.51;100.00
7333;BME280;3707;43.618;25.342;2024-02-21T04:27:38;100852.09;;;6.35;100.00
7333;BME280;3707;43.618;25.342;2024-02-21T04:30:07;100867.19;;;6.47;100.00
7333;BME280;3707;43.618;25.342;2024-02-21T04:32:35;100856.63;;;6.41;100.00
7333;BME280;3707;43.618;25.342;2024-02-21T04:35:02;100870.75;;;6.49;100.00
7333;BME280;3707;43.618;25.342;2024-02-21T04:37:28;100853.97;;;6.39;100.00
7333;BME280;3707;43.618;25.342;2024-02-21T04:39:56;100866.19;;;6.43;100.00
7333;BME280;3707;43.618;25.342;2024-02-21T04:42:24;100876.75;;;6.49;100.00
7333;BME280;3707;43.618;25.342;2024-02-21T04:44:51;100813.34;;;6.13;100.00
7333;BME280;3707;43.618;25.342;2024-02-21T04:47:18;100861.72;;;6.39;100.00
7333;BME280;3707;43.618;25.342;2024-02-21T04:49:45;100869.31;;;6.56;100.00
7333;BME280;3707;43.618;25.342;2024-02-21T04:52:12;100885.81;;;6.61;100.00
7333;BME280;3707;43.618;25.342;2024-02-21T04:54:39;100872.13;;;6.62;100.00
7333;BME280;3707;43.618;25.342;2024-02-21T04:57:05;100865.91;;;6.57;100.00
7333;BME280;3707;43.618;25.342;2024-02-21T04:59:34;100885.28;;;6.68;100.00
7333;BME280;3707;43.618;25.342;2024-02-21T05:02:01;100886.13;;;6.67;100.00
7333;BME280;3707;43.618;25.342;2024-02-21T05:04:28;100887.72;;;6.65;100.00
7333;BME280;3707;43.618;25.342;2024-02-21T05:06:54;100883.47;;;6.65;100.00
7333;BME280;3707;43.618;25.342;2024-02-21T05:09:21;100892.88;;;6.65;100.00
7333;BME280;3707;43.618;25.342;2024-02-21T05:11:48;100890.09;;;6.60;100.00
7333;BME280;3707;43.618;25.342;2024-02-21T05:14:15;100893.38;;;6.56;100.00
7333;BME280;3707;43.618;25.342;2024-02-21T05:16:43;100890.72;;;6.55;100.00
7333;BME280;3707;43.618;25.342;2024-02-21T05:19:10;100866.94;;;6.41;100.00
7333;BME280;3707;43.618;25.342;2024-02-21T05:21:36;100881.97;;;6.51;100.00
7333;BME280;3707;43.618;25.342;2024-02-21T05:24:04;100903.59;;;6.74;100.00
7333;BME280;3707;43.618;25.342;2024-02-21T05:26:31;100903.72;;;6.77;100.00
7333;BME280;3707;43.618;25.342;2024-02-21T05:28:58;100898.06;;;6.85;100.00
7333;BME280;3707;43.618;25.342;2024-02-21T05:31:25;100894.22;;;6.95;100.00
7333;BME280;3707;43.618;25.342;2024-02-21T05:33:53;100871.69;;;6.91;100.00
7333;BME280;3707;43.618;25.342;2024-02-21T05:36:20;100914.09;;;7.18;100.00
7333;BME280;3707;43.618;25.342;2024-02-21T05:38:47;100904.16;;;7.27;100.00
7333;BME280;3707;43.618;25.342;2024-02-21T05:41:13;100898.59;;;7.39;100.00
7333;BME280;3707;43.618;25.342;2024-02-21T05:43:40;100900.03;;;7.53;100.00
7333;BME280;3707;43.618;25.342;2024-02-21T05:46:07;100905.81;;;7.68;100.00
7333;BME280;3707;43.618;25.342;2024-02-21T05:48:34;100866.38;;;7.50;100.00
7333;BME280;3707;43.618;25.342;2024-02-21T05:51:03;100901.09;;;7.79;100.00
7333;BME280;3707;43.618;25.342;2024-02-21T05:53:30;100896.03;;;7.82;100.00
7333;BME280;3707;43.618;25.342;2024-02-21T05:55:56;100889.94;;;7.80;100.00
7333;BME280;3707;43.618;25.342;2024-02-21T05:58:23;100906.56;;;7.86;100.00
7333;BME280;3707;43.618;25.342;2024-02-21T06:00:50;100911.19;;;7.95;100.00
7333;BME280;3707;43.618;25.342;2024-02-21T06:03:17;100859.44;;;7.70;100.00
7333;BME280;3707;43.618;25.342;2024-02-21T06:05:44;100916.22;;;8.14;100.00
7333;BME280;3707;43.618;25.342;2024-02-21T06:08:12;100809.50;;;7.47;100.00
7333;BME280;3707;43.618;25.342;2024-02-21T06:10:39;100820.34;;;7.61;100.00
7333;BME280;3707;43.618;25.342;2024-02-21T06:13:05;100925.78;;;8.37;100.00
7333;BME280;3707;43.618;25.342;2024-02-21T06:15:32;100860.59;;;8.00;100.00
7333;BME280;3707;43.618;25.342;2024-02-21T06:17:59;100901.03;;;8.44;100.00
7333;BME280;3707;43.618;25.342;2024-02-21T06:20:26;100946.13;;;8.76;100.00
7333;BME280;3707;43.618;25.342;2024-02-21T06:22:53;100932.03;;;8.68;100.00
7333;BME280;3707;43.618;25.342;2024-02-21T06:25:21;100907.75;;;8.63;100.00
7333;BME280;3707;43.618;25.342;2024-02-21T06:27:48;100900.72;;;8.59;100.00
7333;BME280;3707;43.618;25.342;2024-02-21T06:30:14;100891.19;;;8.58;100.00
7333;BME280;3707;43.618;25.342;2024-02-21T06:32:41;100922.25;;;8.83;100.00
7333;BME280;3707;43.618;25.342;2024-02-21T06:35:08;100918.63;;;8.78;100.00
7333;BME280;3707;43.618;25.342;2024-02-21T06:37:35;100945.38;;;9.02;100.00
7333;BME280;3707;43.618;25.342;2024-02-21T06:40:04;100934.84;;;9.48;100.00
7333;BME280;3707;43.618;25.342;2024-02-21T06:42:32;100945.06;;;9.18;100.00
7333;BME280;3707;43.618;25.342;2024-02-21T06:44:59;100720.72;;;7.88;100.00
7333;BME280;3707;43.618;25.342;2024-02-21T06:47:26;100947.19;;;9.06;100.00
7333;BME280;3707;43.618;25.342;2024-02-21T06:49:51;100940.81;;;9.20;100.00
7333;BME280;3707;43.618;25.342;2024-02-21T06:52:18;100835.47;;;8.42;100.00
7333;BME280;3707;43.618;25.342;2024-02-21T06:54:46;100820.75;;;8.39;100.00
7333;BME280;3707;43.618;25.342;2024-02-21T06:57:13;100939.88;;;9.43;100.00
7333;BME280;3707;43.618;25.342;2024-02-21T06:59:42;100946.31;;;9.29;100.00
7333;BME280;3707;43.618;25.342;2024-02-21T07:02:09;100916.91;;;9.02;100.00
7333;BME280;3707;43.618;25.342;2024-02-21T07:04:36;100953.63;;;9.17;100.00
7333;BME280;3707;43.618;25.342;2024-02-21T07:07:03;100946.00;;;9.20;100.00
7333;BME280;3707;43.618;25.342;2024-02-21T07:09:30;100947.84;;;9.24;100.00
7333;BME280;3707;43.618;25.342;2024-02-21T07:11:57;100951.28;;;9.23;100.00
7333;BME280;3707;43.618;25.342;2024-02-21T07:14:24;100953.53;;;9.39;100.00
7333;BME280;3707;43.618;25.342;2024-02-21T07:16:52;100953.00;;;9.50;100.00
7333;BME280;3707;43.618;25.342;2024-02-21T07:19:20;100971.56;;;9.62;100.00
7333;BME280;3707;43.618;25.342;2024-02-21T07:21:46;100964.59;;;9.61;100.00
7333;BME280;3707;43.618;25.342;2024-02-21T07:24:13;100969.50;;;9.78;100.00
7333;BME280;3707;43.618;25.342;2024-02-21T07:26:41;100970.63;;;9.86;100.00
7333;BME280;3707;43.618;25.342;2024-02-21T07:29:09;100945.56;;;9.59;100.00
7333;BME280;3707;43.618;25.342;2024-02-21T07:31:40;100967.31;;;9.38;100.00
7333;BME280;3707;43.618;25.342;2024-02-21T07:34:08;100872.78;;;8.49;100.00
7333;BME280;3707;43.618;25.342;2024-02-21T07:36:35;100962.63;;;9.03;100.00
7333;BME280;3707;43.618;25.342;2024-02-21T07:39:02;100961.72;;;9.26;100.00
7333;BME280;3707;43.618;25.342;2024-02-21T07:41:30;100960.41;;;9.39;100.00
7333;BME280;3707;43.618;25.342;2024-02-21T07:43:57;100956.94;;;9.64;100.00
7333;BME280;3707;43.618;25.342;2024-02-21T07:46:24;100974.19;;;9.90;100.00
7333;BME280;3707;43.618;25.342;2024-02-21T07:48:51;100960.34;;;10.15;100.00
7333;BME280;3707;43.618;25.342;2024-02-21T07:51:19;100965.50;;;10.43;100.00
7333;BME280;3707;43.618;25.342;2024-02-21T07:53:46;100966.63;;;10.51;100.00
7333;BME280;3707;43.618;25.342;2024-02-21T07:56:14;100952.19;;;10.61;100.00
7333;BME280;3707;43.618;25.342;2024-02-21T07:58:41;100969.63;;;10.65;100.00
7333;BME280;3707;43.618;25.342;2024-02-21T08:01:08;100973.03;;;10.64;100.00
7333;BME280;3707;43.618;25.342;2024-02-21T08:03:35;100963.72;;;10.70;100.00
7333;BME280;3707;43.618;25.342;2024-02-21T08:06:03;100986.38;;;10.77;100.00
7333;BME280;3707;43.618;25.342;2024-02-21T08:08:32;100979.75;;;9.75;100.00
7333;BME280;3707;43.618;25.342;2024-02-21T08:10:59;100961.09;;;9.59;100.00
7333;BME280;3707;43.618;25.342;2024-02-21T08:13:26;100986.03;;;9.57;100.00
7333;BME280;3707;43.618;25.342;2024-02-21T08:15:54;100994.03;;;9.37;100.00
7333;BME280;3707;43.618;25.342;2024-02-21T08:18:20;100980.72;;;9.77;100.00
7333;BME280;3707;43.618;25.342;2024-02-21T08:20:47;100976.56;;;10.09;100.00
7333;BME280;3707;43.618;25.342;2024-02-21T08:23:16;100983.84;;;10.49;100.00
7333;BME280;3707;43.618;25.342;2024-02-21T08:25:44;100976.31;;;10.88;100.00
7333;BME280;3707;43.618;25.342;2024-02-21T08:28:11;100981.44;;;11.16;100.00
7333;BME280;3707;43.618;25.342;2024-02-21T08:30:38;100973.50;;;11.43;100.00
7333;BME280;3707;43.618;25.342;2024-02-21T08:33:05;100975.53;;;11.87;100.00
7333;BME280;3707;43.618;25.342;2024-02-21T08:35:32;100977.25;;;11.87;100.00
7333;BME280;3707;43.618;25.342;2024-02-21T08:37:59;100984.56;;;11.69;100.00
7333;BME280;3707;43.618;25.342;2024-02-21T08:40:25;100968.78;;;11.28;100.00
7333;BME280;3707;43.618;25.342;2024-02-21T08:42:53;100987.91;;;11.65;100.00
7333;BME280;3707;43.618;25.342;2024-02-21T08:45:20;100984.44;;;11.64;100.00
7333;BME280;3707;43.618;25.342;2024-02-21T08:47:47;100988.34;;;11.80;100.00
7333;BME280;3707;43.618;25.342;2024-02-21T08:50:14;100984.78;;;11.78;100.00
7333;BME280;3707;43.618;25.342;2024-02-21T08:52:40;100971.34;;;11.94;100.00
7333;BME280;3707;43.618;25.342;2024-02-21T08:55:08;100970.25;;;12.22;97.75
7333;BME280;3707;43.618;25.342;2024-02-21T08:57:35;100969.84;;;12.41;96.26
7333;BME280;3707;43.618;25.342;2024-02-21T09:00:05;100988.31;;;12.55;93.55
7333;BME280;3707;43.618;25.342;2024-02-21T09:02:35;100987.38;;;12.51;92.01
7333;BME280;3707;43.618;25.342;2024-02-21T09:05:04;100983.44;;;12.31;93.77
7333;BME280;3707;43.618;25.342;2024-02-21T09:07:31;100987.69;;;12.26;95.85
7333;BME280;3707;43.618;25.342;2024-02-21T09:09:58;100989.69;;;12.00;96.73
7333;BME280;3707;43.618;25.342;2024-02-21T09:12:25;100984.41;;;12.34;94.38
7333;BME280;3707;43.618;25.342;2024-02-21T09:14:51;100947.59;;;12.16;93.98
7333;BME280;3707;43.618;25.342;2024-02-21T09:17:20;100977.25;;;11.88;96.43
7333;BME280;3707;43.618;25.342;2024-02-21T09:19:47;100969.47;;;11.88;96.95
7333;BME280;3707;43.618;25.342;2024-02-21T09:22:14;100984.09;;;11.85;95.15
7333;BME280;3707;43.618;25.342;2024-02-21T09:24:40;100984.44;;;11.99;95.69
7333;BME280;3707;43.618;25.342;2024-02-21T09:27:07;100975.34;;;12.17;95.35
7333;BME280;3707;43.618;25.342;2024-02-21T09:29:34;100979.91;;;12.27;94.07
7333;BME280;3707;43.618;25.342;2024-02-21T09:32:01;100982.34;;;12.59;91.96
7333;BME280;3707;43.618;25.342;2024-02-21T09:34:30;100979.34;;;12.40;90.62
7333;BME280;3707;43.618;25.342;2024-02-21T09:36:57;100977.81;;;12.50;89.92
7333;BME280;3707;43.618;25.342;2024-02-21T09:39:24;100968.28;;;12.51;90.08
7333;BME280;3707;43.618;25.342;2024-02-21T09:41:53;100978.75;;;12.94;89.21
7333;BME280;3707;43.618;25.342;2024-02-21T09:44:22;100975.00;;;13.25;87.21
7333;BME280;3707;43.618;25.342;2024-02-21T09:46:55;100976.97;;;13.36;84.50
7333;BME280;3707;43.618;25.342;2024-02-21T09:49:31;100972.28;;;13.67;83.57
7333;BME280;3707;43.618;25.342;2024-02-21T09:52:01;100967.69;;;13.51;82.06
7333;BME280;3707;43.618;25.342;2024-02-21T09:54:29;100972.88;;;13.51;81.81
7333;BME280;3707;43.618;25.342;2024-02-21T09:56:56;100939.34;;;13.21;79.82
7333;BME280;3707;43.618;25.342;2024-02-21T09:59:24;100944.03;;;13.41;80.48
7333;BME280;3707;43.618;25.342;2024-02-21T10:01:51;100964.41;;;13.64;79.42
7333;BME280;3707;43.618;25.342;2024-02-21T10:04:19;100962.78;;;13.19;81.76
7333;BME280;3707;43.618;25.342;2024-02-21T10:06:47;100963.13;;;13.39;81.43
7333;BME280;3707;43.618;25.342;2024-02-21T10:09:21;100955.81;;;13.18;82.34
7333;BME280;3707;43.618;25.342;2024-02-21T10:11:49;100956.31;;;13.02;83.10
7333;BME280;3707;43.618;25.342;2024-02-21T10:14:16;100959.34;;;13.22;82.44
7333;BME280;3707;43.618;25.342;2024-02-21T10:16:43;100950.00;;;13.34;82.46
7333;BME280;3707;43.618;25.342;2024-02-21T10:19:17;100947.34;;;13.31;82.82
7333;BME280;3707;43.618;25.342;2024-02-21T10:21:57;100943.94;;;13.35;83.43
7333;BME280;3707;43.618;25.342;2024-02-21T10:24:26;100936.03;;;13.29;83.60
7333;BME280;3707;43.618;25.342;2024-02-21T10:26:59;100937.25;;;13.48;82.86
7333;BME280;3707;43.618;25.342;2024-02-21T10:29:26;100916.22;;;13.37;85.32
7333;BME280;3707;43.618;25.342;2024-02-21T10:32:03;100923.47;;;13.55;82.61
7333;BME280;3707;43.618;25.342;2024-02-21T10:34:30;100925.03;;;13.46;82.43
7333;BME280;3707;43.618;25.342;2024-02-21T10:37:01;100910.69;;;13.72;82.23
7333;BME280;3707;43.618;25.342;2024-02-21T10:39:29;100910.13;;;13.38;81.41
7333;BME280;3707;43.618;25.342;2024-02-21T10:41:59;100908.09;;;13.19;82.09
7333;BME280;3707;43.618;25.342;2024-02-21T10:44:28;100882.56;;;13.53;82.00
7333;BME280;3707;43.618;25.342;2024-02-21T10:46:55;100898.78;;;13.35;81.87
7333;BME280;3707;43.618;25.342;2024-02-21T10:49:23;100905.53;;;13.75;80.76
7333;BME280;3707;43.618;25.342;2024-02-21T10:51:55;100903.28;;;13.44;79.57
7333;BME280;3707;43.618;25.342;2024-02-21T10:54:44;100890.00;;;13.27;81.97
7333;BME280;3707;43.618;25.342;2024-02-21T10:57:12;100892.56;;;13.25;82.86
7333;BME280;3707;43.618;25.342;2024-02-21T10:59:39;100867.16;;;13.12;83.01
7333;BME280;3707;43.618;25.342;2024-02-21T11:02:06;100888.38;;;13.33;81.88
7333;BME280;3707;43.618;25.342;2024-02-21T11:04:34;100884.91;;;13.36;81.84
7333;BME280;3707;43.618;25.342;2024-02-21T11:07:03;100884.28;;;13.51;81.19
7333;BME280;3707;43.618;25.342;2024-02-21T11:09:30;100875.50;;;13.46;80.46
7333;BME280;3707;43.618;25.342;2024-02-21T11:12:01;100888.28;;;13.29;81.33
7333;BME280;3707;43.618;25.342;2024-02-21T11:14:29;100881.63;;;12.98;84.46
7333;BME280;3707;43.618;25.342;2024-02-21T11:16:58;100876.78;;;12.71;87.32
7333;BME280;3707;43.618;25.342;2024-02-21T11:19:25;100869.06;;;12.76;87.74
7333;BME280;3707;43.618;25.342;2024-02-21T11:21:53;100859.59;;;12.79;86.44
7333;BME280;3707;43.618;25.342;2024-02-21T11:24:27;100870.22;;;12.91;87.24
7333;BME280;3707;43.618;25.342;2024-02-21T11:26:55;100868.53;;;12.95;86.47
7333;BME280;3707;43.618;25.342;2024-02-21T11:29:26;100862.56;;;13.50;84.82
7333;BME280;3707;43.618;25.342;2024-02-21T11:31:54;100867.88;;;13.55;83.16
7333;BME280;3707;43.618;25.342;2024-02-21T11:34:21;100858.31;;;13.57;82.67
7333;BME280;3707;43.618;25.342;2024-02-21T11:36:48;100844.91;;;13.89;81.50
7333;BME280;3707;43.618;25.342;2024-02-21T11:39:22;100851.94;;;13.95;79.83
7333;BME280;3707;43.618;25.342;2024-02-21T11:42:04;100849.34;;;13.97;80.03
7333;BME280;3707;43.618;25.342;2024-02-21T11:44:34;100852.69;;;13.88;78.58
7333;BME280;3707;43.618;25.342;2024-02-21T11:47:04;100858.56;;;13.72;78.27
7333;BME280;3707;43.618;25.342;2024-02-21T11:49:36;100831.38;;;13.55;79.20
7333;BME280;3707;43.618;25.342;2024-02-21T11:52:04;100759.47;;;13.09;80.31
7333;BME280;3707;43.618;25.342;2024-02-21T11:54:32;100829.50;;;13.46;80.14
7333;BME280;3707;43.618;25.342;2024-02-21T11:57:00;100755.13;;;13.09;79.86
7333;BME280;3707;43.618;25.342;2024-02-21T11:59:29;100839.47;;;13.73;78.48
7333;BME280;3707;43.618;25.342;2024-02-21T12:01:58;100830.31;;;14.04;78.11
7333;BME280;3707;43.618;25.342;2024-02-21T12:04:25;100836.31;;;13.97;76.52
7333;BME280;3707;43.618;25.342;2024-02-21T12:06:53;100832.63;;;13.81;76.79
7333;BME280;3707;43.618;25.342;2024-02-21T12:09:22;100825.03;;;13.98;76.02
7333;BME280;3707;43.618;25.342;2024-02-21T12:11:57;100815.56;;;14.04;76.41
7333;BME280;3707;43.618;25.342;2024-02-21T12:14:24;100816.44;;;14.05;74.83
7333;BME280;3707;43.618;25.342;2024-02-21T12:16:51;100700.22;;;13.56;74.48
7333;BME280;3707;43.618;25.342;2024-02-21T12:19:20;100757.75;;;13.71;74.27
7333;BME280;3707;43.618;25.342;2024-02-21T12:21:48;100786.09;;;14.11;74.87
7333;BME280;3707;43.618;25.342;2024-02-21T12:24:16;100786.19;;;14.20;71.80
7333;BME280;3707;43.618;25.342;2024-02-21T12:26:43;100779.09;;;14.07;73.10
7333;BME280;3707;43.618;25.342;2024-02-21T12:29:10;100798.41;;;14.24;71.57
7333;BME280;3707;43.618;25.342;2024-02-21T12:31:37;100798.28;;;14.12;71.42
7333;BME280;3707;43.618;25.342;2024-02-21T12:34:04;100784.34;;;14.10;75.43
7333;BME280;3707;43.618;25.342;2024-02-21T12:36:33;100795.31;;;14.56;93.68
7333;BME280;3707;43.618;25.342;2024-02-21T12:38:59;100784.72;;;14.41;74.59
7333;BME280;3707;43.618;25.342;2024-02-21T12:41:28;100788.22;;;14.43;73.36
7333;BME280;3707;43.618;25.342;2024-02-21T12:43:56;100783.03;;;14.44;73.37
7333;BME280;3707;43.618;25.342;2024-02-21T12:46:23;100764.41;;;14.17;73.92
7333;BME280;3707;43.618;25.342;2024-02-21T12:48:50;100757.88;;;14.51;73.79
7333;BME280;3707;43.618;25.342;2024-02-21T12:51:17;100776.38;;;14.75;71.22
7333;BME280;3707;43.618;25.342;2024-02-21T12:53:47;100770.38;;;14.86;70.62
7333;BME280;3707;43.618;25.342;2024-02-21T12:56:15;100761.81;;;15.01;67.82
7333;BME280;3707;43.618;25.342;2024-02-21T12:58:42;100757.41;;;14.97;67.41
7333;BME280;3707;43.618;25.342;2024-02-21T13:01:10;100756.63;;;15.10;65.82
7333;BME280;3707;43.618;25.342;2024-02-21T13:03:37;100746.78;;;14.77;64.66